No particular awareness of the weather is required.    There are no Weather-warnings


Meteo18 Weather Cam more information Meteo18 Weather Cam


Thunder radar more information blitzortung!


Rain radar more information rain snow radar


Visit our other weather sites:

Template documentation
and downloads

And another site



Weather Underground History page Text

Daily Summary for October 2, 2016 Units:  Metric    English   Both
« Previous Day
Next Day »
Daily Weekly Monthly Yearly Custom
  High: Low: Average:
Temperature: 16.6 °C 8.4 °C 12.2 °C
Dew Point: 11.7 °C 6.7 °C 8.5 °C
Humidity: 95 % 55 % 80 %
Wind Speed: 19.3 km/h 0.0 km/h 4.4 km/h
Wind Gust: 22.5 km/h - -
Wind:- - WSW
Pressure: 1021.9 hPa 1013.4 hPa -
Precipitation: 0.3 mm    
Historical Graphs
 
 
Tabular Data for October 2, 2016
Time Temperature Dew Point Pressure Wind Wind Speed Wind Gust Humidity Rainfall Rate (Hourly)
00:02 12.7 °C 11.6 °C 1013.4 hPa WSW 4.8 km/h 6.4 km/h 93 % 0.0 mm
00:07 12.6 °C 11.5 °C 1013.4 hPa SW 3.2 km/h 6.4 km/h 93 % 0.0 mm
00:12 12.6 °C 11.7 °C 1013.4 hPa SW 6.4 km/h 6.4 km/h 94 % 0.0 mm
00:17 12.6 °C 11.7 °C 1013.4 hPa SSW 6.4 km/h 8.0 km/h 94 % 0.0 mm
00:22 12.6 °C 11.5 °C 1013.4 hPa WSW 8.0 km/h 8.0 km/h 93 % 0.0 mm
00:27 12.7 °C 11.6 °C 1013.8 hPa SW 4.8 km/h 8.0 km/h 93 % 0.0 mm
00:32 12.7 °C 11.4 °C 1013.8 hPa SW 4.8 km/h 9.7 km/h 92 % 0.0 mm
00:37 12.7 °C 11.4 °C 1013.8 hPa West 3.2 km/h 9.7 km/h 92 % 0.0 mm
00:47 12.6 °C 11.2 °C 1013.8 hPa West 6.4 km/h 9.7 km/h 91 % 0.0 mm
00:57 12.6 °C 11.0 °C 1013.8 hPa SW 6.4 km/h 11.3 km/h 90 % 0.0 mm
01:02 12.6 °C 11.0 °C 1013.8 hPa SW 4.8 km/h 14.5 km/h 90 % 0.0 mm
01:07 12.5 °C 11.1 °C 1013.8 hPa West 4.8 km/h 14.5 km/h 91 % 0.0 mm
01:12 12.4 °C 11.0 °C 1013.8 hPa WSW 1.6 km/h 12.9 km/h 91 % 0.0 mm
01:17 12.3 °C 11.0 °C 1013.8 hPa SW 4.8 km/h 11.3 km/h 92 % 0.0 mm
01:22 12.2 °C 10.9 °C 1013.8 hPa SW 4.8 km/h 11.3 km/h 92 % 0.0 mm
01:27 12.2 °C 10.9 °C 1013.8 hPa WSW 6.4 km/h 9.7 km/h 92 % 0.0 mm
01:32 12.1 °C 10.8 °C 1013.8 hPa WSW 1.6 km/h 9.7 km/h 92 % 0.0 mm
01:37 12.1 °C 10.8 °C 1014.1 hPa WSW 8.0 km/h 8.0 km/h 92 % 0.0 mm
01:42 12.1 °C 10.8 °C 1014.1 hPa WSW 3.2 km/h 11.3 km/h 92 % 0.0 mm
01:47 12.1 °C 10.7 °C 1014.1 hPa SW 8.0 km/h 11.3 km/h 91 % 0.0 mm
01:52 12.0 °C 10.6 °C 1014.1 hPa WSW 4.8 km/h 12.9 km/h 91 % 0.0 mm
01:57 12.0 °C 10.6 °C 1014.1 hPa WSW 3.2 km/h 14.5 km/h 91 % 0.0 mm
02:02 11.9 °C 10.5 °C 1014.1 hPa WSW 6.4 km/h 14.5 km/h 91 % 0.0 mm
02:07 11.9 °C 10.5 °C 1014.1 hPa SW 9.7 km/h 14.5 km/h 91 % 0.0 mm
02:12 11.8 °C 10.4 °C 1014.1 hPa WSW 1.6 km/h 11.3 km/h 91 % 0.0 mm
02:17 11.7 °C 10.3 °C 1014.1 hPa WNW 3.2 km/h 9.7 km/h 91 % 0.0 mm
02:27 11.6 °C 10.2 °C 1014.4 hPa SW 8.0 km/h 11.3 km/h 91 % 0.0 mm
02:32 11.6 °C 10.2 °C 1014.4 hPa WSW 8.0 km/h 11.3 km/h 91 % 0.0 mm
02:37 11.5 °C 10.1 °C 1014.4 hPa WSW 3.2 km/h 11.3 km/h 91 % 0.0 mm
02:42 11.4 °C 10.1 °C 1014.4 hPa WSW 3.2 km/h 11.3 km/h 92 % 0.0 mm
02:47 11.3 °C 10.0 °C 1014.4 hPa West 6.4 km/h 9.7 km/h 92 % 0.0 mm
02:52 11.3 °C 10.0 °C 1014.4 hPa WSW 4.8 km/h 11.3 km/h 92 % 0.0 mm
02:57 11.3 °C 10.0 °C 1014.4 hPa WSW 3.2 km/h 11.3 km/h 92 % 0.0 mm
03:02 11.2 °C 9.9 °C 1014.4 hPa SW 1.6 km/h 11.3 km/h 92 % 0.0 mm
03:12 11.1 °C 9.8 °C 1014.4 hPa SW 6.4 km/h 12.9 km/h 92 % 0.0 mm
03:17 11.1 °C 9.8 °C 1014.4 hPa SW 3.2 km/h 11.3 km/h 92 % 0.0 mm
03:22 11.0 °C 9.8 °C 1014.4 hPa WSW 4.8 km/h 11.3 km/h 92 % 0.0 mm
03:32 10.9 °C 9.7 °C 1014.4 hPa SW 3.2 km/h 11.3 km/h 92 % 0.0 mm
03:42 10.8 °C 9.7 °C 1014.4 hPa SSW 3.2 km/h 11.3 km/h 93 % 0.0 mm
03:47 10.8 °C 9.7 °C 1014.4 hPa SW 4.8 km/h 12.9 km/h 93 % 0.0 mm
03:52 10.8 °C 9.7 °C 1014.4 hPa SSW 9.7 km/h 12.9 km/h 93 % 0.0 mm
03:57 10.8 °C 9.7 °C 1014.4 hPa WSW 4.8 km/h 14.5 km/h 93 % 0.0 mm
04:02 10.7 °C 9.6 °C 1014.4 hPa SW 3.2 km/h 14.5 km/h 93 % 0.0 mm
04:12 10.7 °C 9.6 °C 1014.4 hPa SW 4.8 km/h 12.9 km/h 93 % 0.0 mm
04:22 10.6 °C 9.5 °C 1014.4 hPa SW 9.7 km/h 11.3 km/h 93 % 0.0 mm
04:27 10.6 °C 9.5 °C 1014.4 hPa SW 6.4 km/h 14.5 km/h 93 % 0.0 mm
04:32 10.6 °C 9.5 °C 1014.4 hPa SW 8.0 km/h 14.5 km/h 93 % 0.0 mm
04:37 10.4 °C 9.3 °C 1014.4 hPa WSW 8.0 km/h 14.5 km/h 93 % 0.0 mm
04:42 10.4 °C 9.3 °C 1014.4 hPa WSW 11.3 km/h 12.9 km/h 93 % 0.0 mm
04:47 10.3 °C 9.2 °C 1014.4 hPa Calm   12.9 km/h 93 % 0.0 mm
04:52 10.2 °C 9.1 °C 1014.4 hPa WSW 3.2 km/h 12.9 km/h 93 % 0.0 mm
04:57 10.2 °C 9.1 °C 1014.4 hPa SW 6.4 km/h 12.9 km/h 93 % 0.0 mm
05:02 10.1 °C 9.0 °C 1014.4 hPa WSW 3.2 km/h 12.9 km/h 93 % 0.0 mm
05:12 10.0 °C 8.9 °C 1014.4 hPa SW 3.2 km/h 9.7 km/h 93 % 0.0 mm
05:17 10.0 °C 8.9 °C 1014.4 hPa WSW 4.8 km/h 12.9 km/h 93 % 0.0 mm
05:22 9.9 °C 8.8 °C 1014.4 hPa West 4.8 km/h 12.9 km/h 93 % 0.0 mm
05:32 9.9 °C 8.8 °C 1014.4 hPa WSW 3.2 km/h 9.7 km/h 93 % 0.0 mm
05:37 9.8 °C 8.7 °C 1014.4 hPa WSW 11.3 km/h 11.3 km/h 93 % 0.0 mm
05:42 9.8 °C 8.7 °C 1014.4 hPa West 4.8 km/h 11.3 km/h 93 % 0.0 mm
05:47 9.8 °C 8.7 °C 1014.4 hPa West 4.8 km/h 11.3 km/h 93 % 0.0 mm
05:52 9.7 °C 8.6 °C 1014.8 hPa West 4.8 km/h 11.3 km/h 93 % 0.0 mm
06:02 9.7 °C 8.6 °C 1014.8 hPa WSW 3.2 km/h 12.9 km/h 93 % 0.0 mm
06:12 9.6 °C 8.5 °C 1014.8 hPa SW 8.0 km/h 12.9 km/h 93 % 0.0 mm
06:17 9.6 °C 8.5 °C 1014.8 hPa WSW 3.2 km/h 11.3 km/h 93 % 0.0 mm
06:22 9.5 °C 8.4 °C 1014.8 hPa SW 6.4 km/h 11.3 km/h 93 % 0.0 mm
06:27 9.6 °C 8.5 °C 1014.8 hPa West 3.2 km/h 11.3 km/h 93 % 0.0 mm
06:32 9.6 °C 8.5 °C 1015.1 hPa SW 1.6 km/h 12.9 km/h 93 % 0.0 mm
06:37 9.5 °C 8.4 °C 1015.1 hPa West 8.0 km/h 12.9 km/h 93 % 0.3 mm
06:42 9.4 °C 8.3 °C 1015.1 hPa SW 3.2 km/h 12.9 km/h 93 % 0.3 mm
06:47 9.3 °C 8.4 °C 1015.1 hPa WSW 3.2 km/h 11.3 km/h 94 % 0.3 mm
06:52 9.3 °C 8.4 °C 1015.1 hPa SW 3.2 km/h 8.0 km/h 94 % 0.3 mm
07:02 9.2 °C 8.3 °C 1015.1 hPa West 4.8 km/h 8.0 km/h 94 % 0.3 mm
07:12 9.0 °C 8.1 °C 1015.5 hPa West 3.2 km/h 8.0 km/h 94 % 0.3 mm
07:17 9.0 °C 8.2 °C 1015.5 hPa West 3.2 km/h 9.7 km/h 95 % 0.3 mm
07:32 8.8 °C 8.0 °C 1015.5 hPa West 6.4 km/h 11.3 km/h 95 % 0.3 mm
07:42 8.7 °C 7.9 °C 1015.5 hPa SSW 4.8 km/h 9.7 km/h 95 % 0.0 mm
07:52 8.6 °C 7.8 °C 1015.8 hPa Calm   8.0 km/h 95 % 0.0 mm
07:57 8.6 °C 7.8 °C 1015.5 hPa Calm   6.4 km/h 95 % 0.0 mm
08:02 8.5 °C 7.7 °C 1015.8 hPa Calm   4.8 km/h 95 % 0.0 mm
08:07 8.5 °C 7.7 °C 1015.8 hPa Calm   4.8 km/h 95 % 0.0 mm
08:12 8.6 °C 7.8 °C 1015.8 hPa West 1.6 km/h 4.8 km/h 95 % 0.0 mm
08:17 8.6 °C 7.8 °C 1015.8 hPa WNW 1.6 km/h 4.8 km/h 95 % 0.0 mm
08:22 8.6 °C 7.7 °C 1015.8 hPa Calm   4.8 km/h 94 % 0.0 mm
08:32 8.8 °C 7.9 °C 1016.1 hPa WSW 3.2 km/h 6.4 km/h 94 % 0.0 mm
08:42 8.9 °C 8.0 °C 1016.1 hPa SSW 1.6 km/h 4.8 km/h 94 % 0.0 mm
08:47 8.9 °C 8.0 °C 1016.1 hPa SSW 3.2 km/h 8.0 km/h 94 % 0.0 mm
08:52 9.0 °C 8.1 °C 1016.1 hPa SW 4.8 km/h 8.0 km/h 94 % 0.0 mm
08:57 9.1 °C 8.2 °C 1016.1 hPa SW 3.2 km/h 8.0 km/h 94 % 0.0 mm
09:02 9.2 °C 8.3 °C 1016.1 hPa SSW 1.6 km/h 6.4 km/h 94 % 0.0 mm
09:12 9.4 °C 8.5 °C 1016.5 hPa SSW 8.0 km/h 8.0 km/h 94 % 0.0 mm
09:17 9.5 °C 8.4 °C 1016.5 hPa South 6.4 km/h 9.7 km/h 93 % 0.0 mm
09:22 9.6 °C 8.5 °C 1016.5 hPa SSE 4.8 km/h 11.3 km/h 93 % 0.0 mm
09:32 9.9 °C 8.8 °C 1016.5 hPa SW 1.6 km/h 11.3 km/h 93 % 0.0 mm
09:37 10.1 °C 9.0 °C 1016.8 hPa SW 3.2 km/h 9.7 km/h 93 % 0.0 mm
09:42 10.2 °C 8.8 °C 1016.8 hPa WSW 3.2 km/h 14.5 km/h 91 % 0.0 mm
09:47 10.3 °C 8.7 °C 1016.8 hPa SSW 3.2 km/h 14.5 km/h 90 % 0.0 mm
09:52 10.6 °C 9.0 °C 1016.8 hPa SW 3.2 km/h 14.5 km/h 90 % 0.0 mm
09:57 10.8 °C 9.2 °C 1016.8 hPa SW 3.2 km/h 12.9 km/h 90 % 0.0 mm
10:07 10.9 °C 9.0 °C 1016.8 hPa SW 6.4 km/h 12.9 km/h 88 % 0.0 mm
10:12 11.0 °C 8.9 °C 1017.2 hPa SW 3.2 km/h 12.9 km/h 87 % 0.0 mm
10:17 11.2 °C 9.1 °C 1017.2 hPa WNW 1.6 km/h 12.9 km/h 87 % 0.0 mm
10:22 11.2 °C 8.8 °C 1017.2 hPa West 8.0 km/h 14.5 km/h 85 % 0.0 mm
10:27 11.3 °C 9.0 °C 1017.2 hPa WSW 6.4 km/h 14.5 km/h 86 % 0.0 mm
10:32 11.4 °C 8.8 °C 1017.2 hPa West 8.0 km/h 14.5 km/h 84 % 0.0 mm
10:37 11.6 °C 9.2 °C 1017.2 hPa SW 4.8 km/h 14.5 km/h 85 % 0.0 mm
10:42 11.6 °C 8.8 °C 1017.2 hPa WSW 11.3 km/h 14.5 km/h 83 % 0.0 mm
10:47 11.7 °C 8.9 °C 1017.2 hPa SW 6.4 km/h 19.3 km/h 83 % 0.0 mm
10:52 11.9 °C 9.1 °C 1017.2 hPa West 14.5 km/h 19.3 km/h 83 % 0.0 mm
10:57 12.1 °C 9.5 °C 1017.2 hPa WSW 8.0 km/h 14.5 km/h 84 % 0.0 mm
11:02 12.2 °C 9.2 °C 1017.2 hPa West 8.0 km/h 14.5 km/h 82 % 0.0 mm
11:07 12.3 °C 9.1 °C 1017.5 hPa WSW 9.7 km/h 16.1 km/h 81 % 0.0 mm
11:12 12.4 °C 9.2 °C 1017.5 hPa West 3.2 km/h 16.1 km/h 81 % 0.0 mm
11:17 12.6 °C 9.4 °C 1017.5 hPa WSW 1.6 km/h 14.5 km/h 81 % 0.0 mm
11:27 12.8 °C 9.2 °C 1017.5 hPa WSW 8.0 km/h 14.5 km/h 79 % 0.0 mm
11:32 12.8 °C 9.1 °C 1017.8 hPa WSW 4.8 km/h 12.9 km/h 78 % 0.0 mm
11:42 13.1 °C 9.4 °C 1017.8 hPa West 4.8 km/h 16.1 km/h 78 % 0.0 mm
11:52 13.4 °C 9.1 °C 1017.8 hPa SW 6.4 km/h 16.1 km/h 75 % 0.0 mm
11:57 13.6 °C 9.1 °C 1017.8 hPa SW 11.3 km/h 16.1 km/h 74 % 0.0 mm
12:02 13.8 °C 9.0 °C 1017.8 hPa SW 1.6 km/h 16.1 km/h 73 % 0.0 mm
12:07 14.1 °C 8.9 °C 1017.8 hPa WSW 9.7 km/h 16.1 km/h 71 % 0.0 mm
12:12 13.9 °C 8.5 °C 1017.8 hPa WNW 6.4 km/h 17.7 km/h 70 % 0.0 mm
12:17 13.8 °C 8.4 °C 1017.8 hPa WNW 6.4 km/h 17.7 km/h 70 % 0.0 mm
12:22 13.6 °C 8.0 °C 1017.8 hPa West 6.4 km/h 17.7 km/h 69 % 0.0 mm
12:32 13.3 °C 7.3 °C 1017.8 hPa West 9.7 km/h 19.3 km/h 67 % 0.0 mm
12:42 13.4 °C 7.4 °C 1017.8 hPa WSW 9.7 km/h 19.3 km/h 67 % 0.0 mm
12:47 13.5 °C 7.5 °C 1017.8 hPa WSW 11.3 km/h 19.3 km/h 67 % 0.0 mm
12:52 13.8 °C 8.0 °C 1017.8 hPa WSW 3.2 km/h 19.3 km/h 68 % 0.0 mm
12:57 14.2 °C 7.9 °C 1017.8 hPa South 8.0 km/h 16.1 km/h 66 % 0.0 mm
13:02 14.5 °C 8.7 °C 1017.8 hPa West 9.7 km/h 17.7 km/h 68 % 0.0 mm
13:12 14.6 °C 7.6 °C 1017.8 hPa SW 4.8 km/h 22.5 km/h 63 % 0.0 mm
13:17 14.6 °C 7.6 °C 1017.8 hPa West 6.4 km/h 22.5 km/h 63 % 0.0 mm
13:22 14.9 °C 7.9 °C 1017.8 hPa SW 11.3 km/h 19.3 km/h 63 % 0.0 mm
13:27 14.9 °C 7.4 °C 1017.8 hPa WSW 12.9 km/h 14.5 km/h 61 % 0.0 mm
13:32 14.8 °C 7.4 °C 1017.8 hPa WSW 6.4 km/h 19.3 km/h 61 % 0.0 mm
13:37 14.9 °C 7.2 °C 1017.8 hPa WSW 19.3 km/h 19.3 km/h 60 % 0.0 mm
13:42 14.7 °C 7.5 °C 1017.8 hPa West 9.7 km/h 19.3 km/h 62 % 0.0 mm
13:47 14.8 °C 7.4 °C 1017.8 hPa WNW 4.8 km/h 19.3 km/h 61 % 0.0 mm
13:52 14.9 °C 7.0 °C 1017.8 hPa West 4.8 km/h 19.3 km/h 59 % 0.0 mm
13:57 15.1 °C 7.9 °C 1017.8 hPa South 3.2 km/h 16.1 km/h 62 % 0.0 mm
14:02 15.5 °C 7.3 °C 1017.8 hPa SW 4.8 km/h 16.1 km/h 58 % 0.0 mm
14:07 15.5 °C 7.0 °C 1017.8 hPa SW 6.4 km/h 19.3 km/h 57 % 0.0 mm
14:12 15.7 °C 7.2 °C 1017.8 hPa West 9.7 km/h 19.3 km/h 57 % 0.0 mm
14:17 15.4 °C 7.4 °C 1017.8 hPa SW 11.3 km/h 19.3 km/h 59 % 0.0 mm
14:22 15.3 °C 6.8 °C 1017.8 hPa West 8.0 km/h 17.7 km/h 57 % 0.0 mm
14:27 15.3 °C 7.1 °C 1017.8 hPa WSW 9.7 km/h 17.7 km/h 58 % 0.0 mm
14:32 15.4 °C 7.7 °C 1017.8 hPa South 1.6 km/h 19.3 km/h 60 % 0.0 mm
14:37 15.8 °C 7.6 °C 1017.8 hPa WSW 9.7 km/h 19.3 km/h 58 % 0.0 mm
14:42 16.0 °C 7.0 °C 1017.8 hPa WSW 4.8 km/h 19.3 km/h 55 % 0.0 mm
14:52 15.7 °C 6.7 °C 1017.8 hPa West 4.8 km/h 17.7 km/h 55 % 0.0 mm
14:57 15.9 °C 7.1 °C 1017.8 hPa SW 14.5 km/h 17.7 km/h 56 % 0.0 mm
15:02 15.7 °C 6.7 °C 1017.8 hPa WSW 3.2 km/h 17.7 km/h 55 % 0.0 mm
15:07 15.6 °C 6.9 °C 1017.8 hPa West 4.8 km/h 17.7 km/h 56 % 0.0 mm
15:12 15.7 °C 7.7 °C 1017.8 hPa WNW 11.3 km/h 14.5 km/h 59 % 0.0 mm
15:17 15.8 °C 6.8 °C 1017.8 hPa WSW 6.4 km/h 12.9 km/h 55 % 0.0 mm
15:22 15.9 °C 7.1 °C 1017.8 hPa WSW 3.2 km/h 12.9 km/h 56 % 0.0 mm
15:27 15.9 °C 6.9 °C 1017.8 hPa West 9.7 km/h 12.9 km/h 55 % 0.0 mm
15:32 15.9 °C 7.1 °C 1017.8 hPa West 8.0 km/h 17.7 km/h 56 % 0.0 mm
15:37 16.1 °C 7.6 °C 1017.8 hPa West 11.3 km/h 17.7 km/h 57 % 0.0 mm
15:42 16.0 °C 7.0 °C 1017.8 hPa WSW 14.5 km/h 17.7 km/h 55 % 0.0 mm
15:47 15.9 °C 6.9 °C 1017.8 hPa West 6.4 km/h 17.7 km/h 55 % 0.0 mm
15:52 16.0 °C 7.5 °C 1017.8 hPa WNW 4.8 km/h 17.7 km/h 57 % 0.0 mm
15:57 15.9 °C 7.1 °C 1017.8 hPa WSW 11.3 km/h 16.1 km/h 56 % 0.0 mm
16:02 15.8 °C 7.8 °C 1017.8 hPa WNW 8.0 km/h 12.9 km/h 59 % 0.0 mm
16:07 15.7 °C 8.0 °C 1017.8 hPa West 1.6 km/h 11.3 km/h 60 % 0.0 mm
16:12 15.6 °C 7.9 °C 1017.8 hPa WNW 8.0 km/h 12.9 km/h 60 % 0.0 mm
16:17 15.6 °C 7.9 °C 1017.8 hPa WNW 8.0 km/h 12.9 km/h 60 % 0.0 mm
16:27 16.2 °C 7.7 °C 1017.8 hPa SW 1.6 km/h 12.9 km/h 57 % 0.0 mm
16:32 16.2 °C 7.7 °C 1017.8 hPa WNW 3.2 km/h 12.9 km/h 57 % 0.0 mm
16:42 16.0 °C 7.5 °C 1017.8 hPa West 6.4 km/h 14.5 km/h 57 % 0.0 mm
16:47 16.2 °C 7.7 °C 1017.8 hPa West 4.8 km/h 14.5 km/h 57 % 0.0 mm
16:52 16.4 °C 7.9 °C 1018.2 hPa West 1.6 km/h 14.5 km/h 57 % 0.0 mm
16:57 16.6 °C 7.5 °C 1018.2 hPa WNW 4.8 km/h 12.9 km/h 55 % 0.0 mm
17:02 16.4 °C 7.6 °C 1018.2 hPa West 11.3 km/h 12.9 km/h 56 % 0.0 mm
17:07 16.2 °C 7.4 °C 1018.2 hPa WSW 6.4 km/h 12.9 km/h 56 % 0.0 mm
17:12 16.6 °C 7.8 °C 1018.2 hPa West 8.0 km/h 14.5 km/h 56 % 0.0 mm
17:17 16.4 °C 7.9 °C 1018.2 hPa West 8.0 km/h 14.5 km/h 57 % 0.0 mm
17:22 16.3 °C 7.8 °C 1018.2 hPa WSW 3.2 km/h 11.3 km/h 57 % 0.0 mm
17:27 16.1 °C 7.6 °C 1018.2 hPa WSW 6.4 km/h 12.9 km/h 57 % 0.0 mm
17:32 16.1 °C 7.8 °C 1018.5 hPa SE 1.6 km/h 12.9 km/h 58 % 0.0 mm
17:37 16.0 °C 7.7 °C 1018.5 hPa West 1.6 km/h 12.9 km/h 58 % 0.0 mm
17:42 15.9 °C 7.9 °C 1018.5 hPa WSW 6.4 km/h 11.3 km/h 59 % 0.0 mm
17:47 15.8 °C 7.6 °C 1018.5 hPa WNW 4.8 km/h 12.9 km/h 58 % 0.0 mm
17:57 15.7 °C 7.7 °C 1018.5 hPa West 6.4 km/h 12.9 km/h 59 % 0.0 mm
18:02 15.7 °C 8.0 °C 1018.5 hPa WNW 3.2 km/h 11.3 km/h 60 % 0.0 mm
18:07 15.7 °C 8.0 °C 1018.5 hPa WSW 1.6 km/h 11.3 km/h 60 % 0.0 mm
18:17 15.7 °C 8.2 °C 1018.8 hPa Calm   8.0 km/h 61 % 0.0 mm
18:27 15.5 °C 8.0 °C 1018.8 hPa WNW 3.2 km/h 9.7 km/h 61 % 0.0 mm
18:32 15.4 °C 8.2 °C 1018.8 hPa West 1.6 km/h 9.7 km/h 62 % 0.0 mm
18:42 15.7 °C 8.2 °C 1018.8 hPa NW 3.2 km/h 8.0 km/h 61 % 0.0 mm
18:47 15.8 °C 8.3 °C 1018.8 hPa WNW 3.2 km/h 8.0 km/h 61 % 0.0 mm
18:52 15.9 °C 8.4 °C 1018.8 hPa Calm   6.4 km/h 61 % 0.0 mm
18:57 15.9 °C 8.4 °C 1018.8 hPa WNW 1.6 km/h 6.4 km/h 61 % 0.0 mm
19:07 15.3 °C 8.3 °C 1019.2 hPa Calm   3.2 km/h 63 % 0.0 mm
19:12 15.1 °C 8.3 °C 1019.2 hPa Calm   3.2 km/h 64 % 0.0 mm
19:17 14.9 °C 8.1 °C 1019.2 hPa Calm   3.2 km/h 64 % 0.0 mm
19:22 14.6 °C 8.8 °C 1019.2 hPa Calm     68 % 0.0 mm
19:32 13.8 °C 8.8 °C 1019.5 hPa Calm     72 % 0.0 mm
19:42 13.1 °C 8.6 °C 1019.5 hPa Calm     74 % 0.0 mm
19:47 12.9 °C 8.4 °C 1019.9 hPa Calm     74 % 0.0 mm
19:52 12.8 °C 8.5 °C 1019.9 hPa Calm     75 % 0.0 mm
20:02 12.2 °C 8.5 °C 1019.9 hPa Calm     78 % 0.0 mm
20:07 11.9 °C 8.4 °C 1019.9 hPa Calm     79 % 0.0 mm
20:17 11.9 °C 8.2 °C 1019.9 hPa Calm     78 % 0.0 mm
20:22 12.0 °C 8.3 °C 1020.2 hPa Calm     78 % 0.0 mm
20:27 11.9 °C 8.2 °C 1020.2 hPa Calm     78 % 0.0 mm
20:32 11.7 °C 8.2 °C 1020.2 hPa Calm     79 % 0.0 mm
20:42 11.2 °C 8.1 °C 1020.2 hPa Calm   1.6 km/h 81 % 0.0 mm
20:47 11.2 °C 8.1 °C 1020.5 hPa Calm   1.6 km/h 81 % 0.0 mm
20:52 11.4 °C 7.9 °C 1020.5 hPa Calm   1.6 km/h 79 % 0.0 mm
20:57 11.3 °C 8.0 °C 1020.5 hPa Calm   1.6 km/h 80 % 0.0 mm
21:02 10.9 °C 7.9 °C 1020.5 hPa WNW 1.6 km/h 1.6 km/h 82 % 0.0 mm
21:07 10.7 °C 7.9 °C 1020.5 hPa Calm   1.6 km/h 83 % 0.0 mm
21:12 10.6 °C 8.0 °C 1020.5 hPa Calm   1.6 km/h 84 % 0.0 mm
21:17 10.4 °C 8.0 °C 1020.5 hPa Calm   1.6 km/h 85 % 0.0 mm
21:22 10.4 °C 8.0 °C 1020.9 hPa Calm   1.6 km/h 85 % 0.0 mm
21:27 10.2 °C 7.8 °C 1020.9 hPa Calm   1.6 km/h 85 % 0.0 mm
21:32 10.0 °C 7.8 °C 1020.9 hPa Calm   1.6 km/h 86 % 0.0 mm
21:37 9.8 °C 7.7 °C 1020.9 hPa Calm   1.6 km/h 87 % 0.0 mm
21:42 9.7 °C 7.8 °C 1020.9 hPa Calm   1.6 km/h 88 % 0.0 mm
21:52 9.6 °C 7.9 °C 1021.2 hPa Calm   1.6 km/h 89 % 0.0 mm
21:57 9.5 °C 7.8 °C 1021.2 hPa Calm     89 % 0.0 mm
22:02 9.3 °C 7.6 °C 1021.2 hPa Calm   1.6 km/h 89 % 0.0 mm
22:12 9.2 °C 7.6 °C 1021.2 hPa Calm   1.6 km/h 90 % 0.0 mm
22:17 9.2 °C 7.6 °C 1021.2 hPa Calm   1.6 km/h 90 % 0.0 mm
22:27 9.2 °C 7.6 °C 1021.6 hPa Calm   1.6 km/h 90 % 0.0 mm
22:37 9.0 °C 7.3 °C 1021.6 hPa Calm   1.6 km/h 89 % 0.0 mm
22:42 8.9 °C 7.3 °C 1021.6 hPa Calm   1.6 km/h 90 % 0.0 mm
22:47 8.7 °C 7.2 °C 1021.6 hPa Calm   1.6 km/h 90 % 0.0 mm
22:52 8.6 °C 7.2 °C 1021.6 hPa Calm   1.6 km/h 91 % 0.0 mm
22:57 8.6 °C 7.2 °C 1021.6 hPa Calm     91 % 0.0 mm
23:02 8.5 °C 7.3 °C 1021.6 hPa Calm     92 % 0.0 mm
23:07 8.4 °C 7.2 °C 1021.6 hPa Calm     92 % 0.0 mm
23:17 8.5 °C 7.3 °C 1021.6 hPa North 1.6 km/h 1.6 km/h 92 % 0.0 mm
23:22 8.6 °C 7.4 °C 1021.6 hPa North 1.6 km/h 3.2 km/h 92 % 0.0 mm
23:27 8.5 °C 7.1 °C 1021.9 hPa North 1.6 km/h 3.2 km/h 91 % 0.0 mm
23:32 8.5 °C 7.1 °C 1021.9 hPa Calm   3.2 km/h 91 % 0.0 mm
23:37 8.8 °C 7.4 °C 1021.9 hPa NW 1.6 km/h 3.2 km/h 91 % 0.0 mm
23:42 9.1 °C 7.4 °C 1021.9 hPa North 1.6 km/h 3.2 km/h 89 % 0.0 mm
23:47 9.2 °C 7.3 °C 1021.9 hPa NNW 1.6 km/h 4.8 km/h 88 % 0.0 mm
23:52 9.2 °C 7.1 °C 1021.9 hPa NNW 1.6 km/h 4.8 km/h 87 % 0.0 mm
23:57 9.1 °C 7.1 °C 1021.9 hPa Calm   3.2 km/h 87 % 0.0 mm
Meteo18
Compliments of Weather Underground - 4 mb

Script developed by  Jim McMurry - jmcmurry@mwt.net Adapted for the template by  Wim van der Kuil - Leuven-Template.eu

You find our weather info also at:

European Weather Network

Weather Underground

Equipment we use:

Weather-station
Davis Vue

Weather-program
Meteohub

Weather-server
Raspberry PI 2 B+

Provider
1 and 1

Davis Vue

Meteohub

Raspberry PI 2 B+

1 and 1